Time;durP1;ratioP1;P1;durP2;ratioP2;P2;SDS_P1;SDS_P2;PMS_P1;PMS_P2;Temp;Humidity;BMP_temperature;BMP_pressure;BME280_temperature;BME280_humidity;BME280_pressure;Samples;Min_cycle;Max_cycle;Signal;HPM_P1;HPM_P2
2024/01/19 00:00:25;;;;;;;6.55;4.22;;;;;;;-1.41;100.00;92369.03;2089159;28;20198;-85
2024/01/19 00:01:26;;;;;;;6.95;4.00;;;;;;;-1.47;100.00;92373.09;2065665;28;20041;-83
2024/01/19 00:02:27;;;;;;;11.90;4.65;;;;;;;-1.48;100.00;92363.75;2094425;28;20071;-84
2024/01/19 00:03:28;;;;;;;7.72;4.28;;;;;;;-1.55;100.00;92375.63;2094261;28;20027;-82
2024/01/19 00:04:29;;;;;;;9.25;4.63;;;;;;;-1.47;100.00;92371.22;2082812;28;20803;-85
2024/01/19 00:05:30;;;;;;;5.35;3.65;;;;;;;-1.66;100.00;92368.78;2085921;28;21066;-87
2024/01/19 00:06:31;;;;;;;10.65;4.72;;;;;;;-1.53;100.00;92370.06;2072611;28;20063;-85
2024/01/19 00:07:32;;;;;;;8.10;4.22;;;;;;;-1.68;100.00;92376.22;2090599;28;20811;-86
2024/01/19 00:08:33;;;;;;;8.48;4.40;;;;;;;-1.63;100.00;92374.03;2066755;28;20112;-86
2024/01/19 00:09:34;;;;;;;7.90;3.90;;;;;;;-1.73;100.00;92374.69;2089332;28;20398;-86
2024/01/19 00:10:36;;;;;;;11.50;4.38;;;;;;;-1.69;100.00;92385.22;2079886;28;20095;-84
2024/01/19 00:11:37;;;;;;;9.45;4.00;;;;;;;-1.68;100.00;92382.22;2061406;28;20512;-84
2024/01/19 00:12:39;;;;;;;10.10;4.20;;;;;;;-1.79;100.00;92383.97;2103093;28;20397;-86
2024/01/19 00:13:44;;;;;;;7.53;4.35;;;;;;;-1.73;100.00;92393.03;2082152;28;20025;-85
2024/01/19 00:14:45;;;;;;;8.77;4.15;;;;;;;-1.79;100.00;92389.22;2086492;28;20111;-82
2024/01/19 00:15:45;;;;;;;11.05;4.35;;;;;;;-1.90;100.00;92390.94;2095741;28;20037;-86
2024/01/19 00:16:46;;;;;;;12.18;4.70;;;;;;;-1.82;100.00;92395.91;2077780;28;20035;-83
2024/01/19 00:17:47;;;;;;;7.50;4.90;;;;;;;-1.92;100.00;92396.53;2096551;28;20094;-87
2024/01/19 00:18:48;;;;;;;10.02;4.82;;;;;;;-1.85;100.00;92394.00;2081504;28;20111;-86
2024/01/19 00:19:49;;;;;;;7.93;4.60;;;;;;;-1.78;100.00;92388.84;2105765;28;20024;-82
2024/01/19 00:20:50;;;;;;;8.15;4.13;;;;;;;-1.69;100.00;92393.81;2077533;28;20155;-85
2024/01/19 00:21:51;;;;;;;11.52;4.40;;;;;;;-1.64;100.00;92390.88;2069497;28;20105;-83
2024/01/19 00:22:52;;;;;;;8.02;3.95;;;;;;;-1.74;100.00;92402.00;2102178;28;20020;-82
2024/01/19 00:23:53;;;;;;;9.88;4.38;;;;;;;-1.69;100.00;92401.69;2101186;28;20098;-84
2024/01/19 00:24:54;;;;;;;6.32;4.15;;;;;;;-1.82;100.00;92403.00;2087108;28;20052;-85
2024/01/19 00:25:55;;;;;;;11.43;4.35;;;;;;;-2.00;100.00;92404.66;2081844;28;20143;-84
2024/01/19 00:27:02;;;;;;;12.70;4.88;;;;;;;-1.92;100.00;92401.78;2075881;28;20036;-85
2024/01/19 00:28:03;;;;;;;11.18;4.43;;;;;;;-1.84;100.00;92402.63;2088431;28;20132;-82
2024/01/19 00:29:05;;;;;;;10.43;4.70;;;;;;;-1.97;100.00;92401.34;2080985;28;20111;-87
2024/01/19 00:30:06;;;;;;;12.60;4.78;;;;;;;-1.99;100.00;92406.16;2076606;28;20075;-82
2024/01/19 00:31:07;;;;;;;9.88;4.18;;;;;;;-1.88;100.00;92404.44;2086704;28;20036;-88
2024/01/19 00:32:11;;;;;;;8.93;4.40;;;;;;;-1.90;100.00;92402.16;2068126;28;20044;-83
2024/01/19 00:33:12;;;;;;;9.07;4.32;;;;;;;-1.88;100.00;92412.31;2089298;28;20107;-82
2024/01/19 00:34:16;;;;;;;8.02;4.10;;;;;;;-1.88;100.00;92412.31;2075568;28;20374;-82
2024/01/19 00:35:17;;;;;;;10.30;4.50;;;;;;;-1.79;100.00;92410.16;2079731;28;20097;-82
2024/01/19 00:36:18;;;;;;;8.32;4.20;;;;;;;-1.71;100.00;92411.00;2096285;28;20040;-84
2024/01/19 00:37:19;;;;;;;7.88;4.13;;;;;;;-1.79;100.00;92415.41;2089770;28;20055;-86
2024/01/19 00:38:20;;;;;;;9.32;3.88;;;;;;;-1.75;100.00;92413.59;2104526;28;20057;-82
2024/01/19 00:39:21;;;;;;;9.52;4.70;;;;;;;-1.81;100.00;92417.59;2103258;28;20035;-85
2024/01/19 00:40:22;;;;;;;8.57;4.75;;;;;;;-1.57;100.00;92417.19;2101462;27;20031;-84
2024/01/19 00:41:23;;;;;;;7.50;4.28;;;;;;;-1.53;100.00;92431.06;2105479;28;20028;-83
2024/01/19 00:42:24;;;;;;;7.43;4.13;;;;;;;-1.62;100.00;92435.84;2082204;28;20119;-84
2024/01/19 00:43:25;;;;;;;9.30;4.50;;;;;;;-1.78;100.00;92425.53;2108525;28;20535;-82
2024/01/19 00:44:26;;;;;;;9.38;4.20;;;;;;;-1.68;100.00;92431.25;2096349;28;20085;-84
2024/01/19 00:45:28;;;;;;;9.05;5.03;;;;;;;-1.72;100.00;92431.19;2091157;28;20562;-83
2024/01/19 00:46:29;;;;;;;9.52;4.55;;;;;;;-1.94;100.00;92432.78;2111521;28;20084;-84
2024/01/19 00:47:30;;;;;;;8.35;4.53;;;;;;;-2.09;100.00;92437.06;2088079;28;20416;-83
2024/01/19 00:48:31;;;;;;;9.52;4.90;;;;;;;-2.04;100.00;92439.38;2092680;28;20028;-83
2024/01/19 00:49:32;;;;;;;10.45;4.63;;;;;;;-1.99;100.00;92443.56;2094039;28;20058;-86
2024/01/19 00:50:33;;;;;;;11.68;4.70;;;;;;;-2.19;100.00;92432.44;2073224;28;20037;-81
2024/01/19 00:51:34;;;;;;;10.95;4.55;;;;;;;-2.14;100.00;92436.63;2097811;28;20366;-84
2024/01/19 00:52:35;;;;;;;6.68;3.90;;;;;;;-1.98;100.00;92433.84;2081908;28;20036;-83
2024/01/19 00:53:37;;;;;;;10.95;4.97;;;;;;;-2.00;100.00;92433.44;2088139;28;20343;-85
2024/01/19 00:54:38;;;;;;;12.32;5.10;;;;;;;-2.00;100.00;92430.84;2084188;28;20028;-83
2024/01/19 00:55:39;;;;;;;8.40;4.40;;;;;;;-1.93;100.00;92438.78;2092380;28;20119;-82
2024/01/19 00:56:40;;;;;;;9.55;4.30;;;;;;;-1.93;100.00;92439.56;2102053;28;20086;-83
2024/01/19 00:57:41;;;;;;;11.18;5.30;;;;;;;-1.82;100.00;92445.66;2082480;28;20616;-83
2024/01/19 00:58:44;;;;;;;7.28;4.55;;;;;;;-1.82;100.00;92439.69;2104949;28;20031;-83
2024/01/19 00:59:45;;;;;;;8.30;4.30;;;;;;;-2.01;100.00;92447.66;2068722;28;20535;-85
2024/01/19 01:00:46;;;;;;;12.55;4.45;;;;;;;-1.88;100.00;92444.47;2105375;28;20031;-83
2024/01/19 01:01:47;;;;;;;9.68;4.63;;;;;;;-1.84;100.00;92450.53;2081630;28;20465;-85
2024/01/19 01:02:48;;;;;;;7.25;4.13;;;;;;;-1.90;100.00;92448.53;2071152;28;20112;-82
2024/01/19 01:03:49;;;;;;;10.13;4.57;;;;;;;-1.81;100.00;92457.66;2093599;28;20024;-82
2024/01/19 01:04:51;;;;;;;10.98;4.35;;;;;;;-1.90;100.00;92454.53;2080657;28;20028;-86
2024/01/19 01:05:58;;;;;;;8.93;4.57;;;;;;;-1.98;100.00;92468.63;2104839;28;20056;-82
2024/01/19 01:07:00;;;;;;;8.93;4.63;;;;;;;-1.97;100.00;92457.06;2082659;28;20032;-85
2024/01/19 01:08:00;;;;;;;10.07;4.47;;;;;;;-1.92;100.00;92456.75;2087658;28;20036;-88
2024/01/19 01:09:02;;;;;;;10.18;4.35;;;;;;;-1.98;100.00;92457.41;2106061;28;20107;-82
2024/01/19 01:10:04;;;;;;;9.40;3.80;;;;;;;-2.00;100.00;92457.03;2075446;28;20102;-84
2024/01/19 01:11:05;;;;;;;9.75;4.53;;;;;;;-2.09;100.00;92463.25;2095297;28;20033;-84
2024/01/19 01:12:06;;;;;;;9.15;4.28;;;;;;;-2.17;100.00;92458.25;2075686;28;20092;-82
2024/01/19 01:13:07;;;;;;;11.63;4.68;;;;;;;-2.13;100.00;92459.81;2063424;28;20441;-83
2024/01/19 01:14:09;;;;;;;11.93;5.10;;;;;;;-2.29;100.00;92464.44;2088285;28;20115;-82
2024/01/19 01:15:10;;;;;;;8.43;4.63;;;;;;;-2.14;100.00;92468.78;2059925;28;20247;-85
2024/01/19 01:16:14;;;;;;;9.00;4.68;;;;;;;-2.36;100.00;92467.72;2105206;28;20028;-83
2024/01/19 01:17:15;;;;;;;8.95;4.13;;;;;;;-2.32;100.00;92463.28;2080685;28;20135;-82
2024/01/19 01:18:17;;;;;;;9.93;4.50;;;;;;;-2.44;100.00;92460.09;2100086;28;20036;-84
2024/01/19 01:19:18;;;;;;;9.80;4.55;;;;;;;-2.54;100.00;92467.44;2090151;28;20075;-82
2024/01/19 01:20:20;;;;;;;9.25;4.60;;;;;;;-2.44;100.00;92476.56;2083140;28;20021;-86
2024/01/19 01:21:21;;;;;;;10.10;4.45;;;;;;;-2.44;100.00;92475.81;2102846;28;20365;-81
2024/01/19 01:22:22;;;;;;;9.95;4.40;;;;;;;-2.60;100.00;92481.13;2083208;28;20150;-81
2024/01/19 01:23:24;;;;;;;10.02;5.07;;;;;;;-2.63;100.00;92482.59;2088550;28;20028;-84
2024/01/19 01:24:25;;;;;;;13.98;5.43;;;;;;;-2.74;100.00;92486.88;2092055;28;20133;-82
2024/01/19 01:25:25;;;;;;;12.93;4.95;;;;;;;-2.56;100.00;92484.56;2107041;27;20130;-84
2024/01/19 01:26:26;;;;;;;14.77;5.13;;;;;;;-2.58;100.00;92481.56;2113297;28;20460;-82
2024/01/19 01:27:27;;;;;;;8.45;4.05;;;;;;;-2.54;100.00;92480.50;2094266;28;20116;-88
2024/01/19 01:28:28;;;;;;;8.80;4.25;;;;;;;-2.60;100.00;92497.59;2096312;28;20039;-83
2024/01/19 01:29:29;;;;;;;9.00;4.18;;;;;;;-2.67;100.00;92492.25;2091449;28;20024;-83
2024/01/19 01:30:30;;;;;;;12.70;5.63;;;;;;;-2.69;100.00;92502.28;2083706;28;20461;-82
2024/01/19 01:31:31;;;;;;;9.55;4.70;;;;;;;-2.78;100.00;92499.91;2096172;28;20031;-82
2024/01/19 01:32:33;;;;;;;7.70;5.20;;;;;;;-2.81;100.00;92508.44;2076688;28;20461;-84
2024/01/19 01:33:34;;;;;;;10.80;4.97;;;;;;;-2.80;100.00;92503.97;2086265;28;20036;-80
2024/01/19 01:34:35;;;;;;;12.00;5.28;;;;;;;-2.74;100.00;92504.44;2098221;28;20108;-81
2024/01/19 01:35:36;;;;;;;8.93;4.80;;;;;;;-2.85;100.00;92512.84;2076506;28;20032;-80
2024/01/19 01:36:37;;;;;;;9.60;4.63;;;;;;;-2.84;100.00;92516.97;2097052;28;20037;-84
2024/01/19 01:37:38;;;;;;;9.15;4.88;;;;;;;-2.91;100.00;92513.47;2079834;28;20082;-83
2024/01/19 01:38:39;;;;;;;14.18;5.22;;;;;;;-2.97;100.00;92517.47;2076407;28;20378;-83
2024/01/19 01:39:39;;;;;;;11.98;4.97;;;;;;;-2.94;100.00;92524.59;2089916;28;20461;-80
2024/01/19 01:40:41;;;;;;;11.57;5.47;;;;;;;-3.04;100.00;92524.06;2074776;28;20036;-83
2024/01/19 01:41:44;;;;;;;8.13;4.60;;;;;;;-2.94;100.00;92529.84;2091124;28;20094;-83
2024/01/19 01:42:45;;;;;;;8.30;4.65;;;;;;;-2.96;100.00;92522.34;2072381;28;20540;-83
2024/01/19 01:43:46;;;;;;;13.20;4.78;;;;;;;-2.90;100.00;92526.19;2079416;28;20084;-85
2024/01/19 01:44:47;;;;;;;12.77;4.85;;;;;;;-2.86;100.00;92528.88;2065413;28;20029;-84
2024/01/19 01:45:48;;;;;;;10.40;5.85;;;;;;;-2.83;100.00;92522.97;2074979;28;20078;-82
2024/01/19 01:46:49;;;;;;;8.38;5.00;;;;;;;-2.85;100.00;92533.03;2087882;28;20552;-84
2024/01/19 01:47:50;;;;;;;9.77;5.13;;;;;;;-2.92;100.00;92525.03;2069277;28;20118;-83
2024/01/19 01:48:51;;;;;;;8.18;4.35;;;;;;;-2.95;100.00;92526.47;2088347;28;20887;-86
2024/01/19 01:49:54;;;;;;;9.00;4.85;;;;;;;-2.85;100.00;92533.78;2071390;28;20033;-80
2024/01/19 01:50:56;;;;;;;7.88;4.38;;;;;;;-2.84;100.00;92532.66;2083081;28;20400;-84
2024/01/19 01:51:57;;;;;;;8.18;4.40;;;;;;;-2.80;100.00;92537.97;2096065;28;20032;-83
2024/01/19 01:52:58;;;;;;;10.48;4.53;;;;;;;-2.81;100.00;92534.59;2082453;28;20059;-84
2024/01/19 01:54:01;;;;;;;10.07;4.32;;;;;;;-3.02;100.00;92538.66;2101958;28;20061;-83
2024/01/19 01:55:02;;;;;;;7.90;4.47;;;;;;;-2.95;100.00;92541.41;2079781;28;20032;-82
2024/01/19 01:56:07;;;;;;;7.72;4.38;;;;;;;-2.90;100.00;92536.66;2094324;28;20029;-81
2024/01/19 01:57:09;;;;;;;11.57;4.97;;;;;;;-2.98;100.00;92537.63;2087716;28;20064;-80
2024/01/19 01:58:12;;;;;;;8.93;4.57;;;;;;;-2.96;100.00;92540.66;2075581;28;20083;-83
2024/01/19 01:59:13;;;;;;;8.82;4.10;;;;;;;-2.90;100.00;92538.50;2080622;28;20453;-83
2024/01/19 02:00:17;;;;;;;8.48;4.18;;;;;;;-2.88;100.00;92536.31;2076545;28;20088;-82
2024/01/19 02:01:18;;;;;;;9.10;3.60;;;;;;;-3.03;100.00;92540.50;2083823;28;20124;-85
2024/01/19 02:02:19;;;;;;;8.63;4.40;;;;;;;-3.24;100.00;92542.72;2096230;28;20451;-84
2024/01/19 02:03:20;;;;;;;6.85;4.22;;;;;;;-3.17;100.00;92541.00;2060520;28;20047;-81
2024/01/19 02:04:21;;;;;;;8.32;3.85;;;;;;;-3.17;100.00;92540.22;2091101;28;20028;-81
2024/01/19 02:05:22;;;;;;;7.43;4.22;;;;;;;-3.11;100.00;92544.09;2068650;28;20028;-85
2024/01/19 02:06:23;;;;;;;10.27;4.40;;;;;;;-3.15;100.00;92540.66;2093269;28;20104;-83
2024/01/19 02:07:24;;;;;;;8.15;4.38;;;;;;;-3.32;100.00;92545.19;2065484;28;20021;-82
2024/01/19 02:08:25;;;;;;;10.00;3.75;;;;;;;-3.33;100.00;92540.31;2086143;28;20553;-81
2024/01/19 02:09:27;;;;;;;9.20;4.05;;;;;;;-3.14;100.00;92544.78;2089005;28;20024;-84
2024/01/19 02:10:29;;;;;;;9.93;4.40;;;;;;;-3.32;100.00;92541.81;2068850;28;20030;-82
2024/01/19 02:11:30;;;;;;;8.15;3.85;;;;;;;-3.34;100.00;92544.75;2085570;28;20036;-81
2024/01/19 02:12:31;;;;;;;7.03;3.88;;;;;;;-3.28;100.00;92544.50;2069557;28;20041;-78
2024/01/19 02:13:32;;;;;;;7.95;3.95;;;;;;;-3.42;100.00;92542.38;2069648;28;20045;-85
2024/01/19 02:14:33;;;;;;;6.07;3.53;;;;;;;-3.16;100.00;92546.97;2078584;28;20069;-81
2024/01/19 02:15:37;;;;;;;8.90;4.28;;;;;;;-3.26;100.00;92547.53;2080657;28;20185;-84
2024/01/19 02:16:38;;;;;;;11.23;3.83;;;;;;;-3.38;100.00;92551.00;2099202;28;20107;-79
2024/01/19 02:17:39;;;;;;;9.45;4.15;;;;;;;-3.40;100.00;92548.00;2076430;28;20134;-83
2024/01/19 02:18:40;;;;;;;7.90;4.15;;;;;;;-3.47;100.00;92540.75;2083699;28;20102;-82
2024/01/19 02:19:41;;;;;;;6.78;4.20;;;;;;;-3.53;100.00;92547.34;2098357;28;20457;-83
2024/01/19 02:20:47;;;;;;;8.05;3.85;;;;;;;-3.47;100.00;92548.59;2086611;28;20032;-82
2024/01/19 02:21:49;;;;;;;5.70;3.58;;;;;;;-3.69;100.00;92549.22;2100334;28;20492;-86
2024/01/19 02:22:52;;;;;;;6.65;4.07;;;;;;;-3.63;100.00;92553.88;2073639;28;20028;-87
2024/01/19 02:25:54;;;;;;;;;;;;;;;-4.90;100.00;92567.94;2118279;27;20852;-81
2024/01/19 02:26:56;;;;;;;9.00;3.85;;;;;;;-4.87;100.00;92570.66;2136313;27;19950;-85
2024/01/19 02:27:57;;;;;;;8.60;4.20;;;;;;;-4.86;100.00;92566.94;2102678;28;20062;-84
2024/01/19 02:28:59;;;;;;;9.65;4.60;;;;;;;-4.74;100.00;92566.16;2118426;27;20550;-85
2024/01/19 02:30:01;;;;;;;11.30;4.40;;;;;;;-4.60;100.00;92569.13;2096908;28;20026;-84
2024/01/19 02:31:02;;;;;;;12.38;4.68;;;;;;;-4.70;100.00;92572.19;2104568;28;20031;-87
2024/01/19 02:32:03;;;;;;;8.52;4.15;;;;;;;-4.61;100.00;92578.03;2111105;28;20037;-82
2024/01/19 02:33:04;;;;;;;8.35;4.75;;;;;;;-4.67;100.00;92573.38;2102554;27;20079;-83
2024/01/19 02:34:05;;;;;;;10.40;3.95;;;;;;;-4.85;100.00;92573.69;2112008;28;20020;-81
2024/01/19 02:35:06;;;;;;;10.63;4.95;;;;;;;-4.87;100.00;92577.72;2085369;28;20516;-82
2024/01/19 02:36:07;;;;;;;12.20;4.55;;;;;;;-4.74;100.00;92571.38;2111699;28;20031;-85
2024/01/19 02:37:08;;;;;;;11.05;4.75;;;;;;;-4.78;100.00;92577.53;2079794;28;20514;-82
2024/01/19 02:38:09;;;;;;;10.15;5.30;;;;;;;-4.80;100.00;92577.88;2108353;28;20028;-81
2024/01/19 02:39:11;;;;;;;11.68;4.57;;;;;;;-4.69;100.00;92584.16;2090980;28;20123;-90
2024/01/19 02:40:12;;;;;;;8.50;4.60;;;;;;;-4.59;100.00;92578.44;2108298;28;20035;-85
2024/01/19 02:41:13;;;;;;;8.52;4.50;;;;;;;-4.48;100.00;92580.56;2103291;28;20060;-85
2024/01/19 02:42:14;;;;;;;9.63;4.50;;;;;;;-4.36;100.00;92578.63;2096182;28;20678;-84
2024/01/19 02:43:15;;;;;;;11.00;4.65;;;;;;;-4.40;100.00;92577.78;2110249;27;20153;-84
2024/01/19 02:44:16;;;;;;;12.15;4.82;;;;;;;-4.43;100.00;92582.94;2105879;27;20035;-82
2024/01/19 02:45:17;;;;;;;8.93;4.30;;;;;;;-4.71;100.00;92578.50;2096092;28;20051;-84
2024/01/19 02:46:20;;;;;;;9.63;4.55;;;;;;;-4.83;100.00;92584.53;2119771;27;20065;-83
2024/01/19 02:47:21;;;;;;;10.43;4.97;;;;;;;-4.63;100.00;92582.81;2097593;28;20032;-81
2024/01/19 02:48:22;;;;;;;10.18;4.97;;;;;;;-4.78;100.00;92582.75;2111834;28;20461;-86
2024/01/19 02:49:24;;;;;;;8.73;3.92;;;;;;;-4.70;100.00;92592.28;2118325;27;20031;-88
2024/01/19 02:50:25;;;;;;;9.68;3.72;;;;;;;-4.60;100.00;92581.41;2109507;27;20023;-83
2024/01/19 02:51:26;;;;;;;10.50;4.07;;;;;;;-4.62;100.00;92588.78;2114915;28;20031;-86
2024/01/19 02:52:27;;;;;;;9.50;4.40;;;;;;;-4.44;100.00;92589.22;2097971;28;20027;-84
2024/01/19 02:53:28;;;;;;;7.75;3.78;;;;;;;-4.45;100.00;92587.72;2099607;28;20427;-85
2024/01/19 02:54:29;;;;;;;9.02;4.07;;;;;;;-4.38;100.00;92586.06;2111968;28;20027;-85
2024/01/19 02:55:30;;;;;;;8.00;4.13;;;;;;;-4.38;100.00;92588.66;2096978;28;20071;-85
2024/01/19 02:56:31;;;;;;;12.80;4.05;;;;;;;-4.44;100.00;92584.78;2104037;28;20534;-87
2024/01/19 02:57:32;;;;;;;9.55;3.90;;;;;;;-4.30;100.00;92594.81;2099160;28;20538;-81
2024/01/19 02:58:34;;;;;;;9.98;4.72;;;;;;;-4.30;100.00;92589.59;2082620;28;20036;-83
2024/01/19 02:59:35;;;;;;;6.93;3.80;;;;;;;-4.35;100.00;92597.66;2111745;27;20542;-82
2024/01/19 03:00:40;;;;;;;9.57;4.00;;;;;;;-4.26;100.00;92587.81;2106979;27;20035;-82
2024/01/19 03:01:41;;;;;;;6.05;3.78;;;;;;;-4.16;100.00;92597.03;2120106;28;20027;-84
2024/01/19 03:02:42;;;;;;;10.68;4.15;;;;;;;-4.14;100.00;92600.78;2090915;28;20038;-83
2024/01/19 03:03:43;;;;;;;10.15;4.40;;;;;;;-4.25;100.00;92601.66;2091797;28;20047;-83
2024/01/19 03:04:44;;;;;;;7.53;3.92;;;;;;;-4.28;100.00;92599.69;2119204;27;20030;-83
2024/01/19 03:05:45;;;;;;;8.13;4.50;;;;;;;-4.27;100.00;92596.75;2098417;28;20027;-84
2024/01/19 03:06:46;;;;;;;7.35;4.13;;;;;;;-4.07;100.00;92600.22;2103452;28;20062;-85
2024/01/19 03:07:46;;;;;;;9.35;3.70;;;;;;;-4.15;100.00;92603.75;2086195;28;20051;-88
2024/01/19 03:08:48;;;;;;;8.63;3.45;;;;;;;-4.00;100.00;92600.38;2106569;27;20028;-81
2024/01/19 03:09:48;;;;;;;10.23;3.60;;;;;;;-3.96;100.00;92592.63;2130304;27;20076;-85
2024/01/19 03:10:49;;;;;;;7.03;4.30;;;;;;;-4.08;100.00;92593.50;2116838;27;20138;-83
2024/01/19 03:11:50;;;;;;;5.80;3.83;;;;;;;-4.15;100.00;92599.28;2119518;28;20554;-81
2024/01/19 03:12:51;;;;;;;8.88;4.03;;;;;;;-3.97;100.00;92593.72;2106638;27;20426;-83
2024/01/19 03:13:53;;;;;;;5.47;3.47;;;;;;;-4.10;100.00;92600.88;2105101;27;20420;-86
2024/01/19 03:14:54;;;;;;;8.70;4.25;;;;;;;-4.00;100.00;92597.00;2108632;27;20161;-83
2024/01/19 03:15:57;;;;;;;9.05;4.35;;;;;;;-4.01;100.00;92598.88;2097101;28;20061;-84
2024/01/19 03:16:58;;;;;;;7.72;3.63;;;;;;;-3.90;100.00;92602.50;2111576;28;20418;-83
2024/01/19 03:17:59;;;;;;;6.63;3.42;;;;;;;-4.00;100.00;92602.97;2079696;28;20034;-84
2024/01/19 03:19:00;;;;;;;7.43;3.65;;;;;;;-3.90;100.00;92606.97;2112701;28;20031;-84
2024/01/19 03:20:01;;;;;;;7.95;4.03;;;;;;;-3.85;100.00;92604.84;2084371;28;20130;-81
2024/01/19 03:21:02;;;;;;;8.18;3.92;;;;;;;-3.92;100.00;92609.88;2104677;28;20024;-86
2024/01/19 03:22:04;;;;;;;7.82;4.28;;;;;;;-3.83;100.00;92605.25;2084138;28;20074;-82
2024/01/19 03:23:05;;;;;;;10.40;3.95;;;;;;;-3.79;100.00;92602.72;2112557;28;20024;-83
2024/01/19 03:24:06;;;;;;;10.57;3.85;;;;;;;-3.87;100.00;92604.41;2086848;28;20032;-83
2024/01/19 03:25:07;;;;;;;12.05;4.63;;;;;;;-3.85;100.00;92591.03;2103375;28;21262;-83
2024/01/19 03:26:08;;;;;;;10.63;4.63;;;;;;;-3.85;100.00;92598.88;2129127;27;20038;-83
2024/01/19 03:27:14;;;;;;;12.80;4.95;;;;;;;-3.69;100.00;92596.97;2105408;28;20087;-83
2024/01/19 03:28:15;;;;;;;8.88;4.50;;;;;;;-3.53;100.00;92596.97;2098454;28;20122;-84
2024/01/19 03:29:16;;;;;;;12.15;5.18;;;;;;;-3.43;100.00;92593.81;2100856;28;20066;-84
2024/01/19 03:30:17;;;;;;;11.80;4.28;;;;;;;-3.45;100.00;92600.50;2098871;27;20027;-83
2024/01/19 03:31:18;;;;;;;8.48;4.28;;;;;;;-3.30;100.00;92600.47;2119581;28;20788;-84
2024/01/19 03:32:19;;;;;;;8.68;4.47;;;;;;;-3.20;100.00;92601.03;2076222;28;20028;-82
2024/01/19 03:33:20;;;;;;;11.25;4.80;;;;;;;-3.20;100.00;92601.03;2095435;28;20115;-86
2024/01/19 03:34:21;;;;;;;8.65;4.45;;;;;;;-3.21;100.00;92600.25;2090094;28;20046;-81
2024/01/19 03:35:21;;;;;;;8.88;4.35;;;;;;;-3.30;100.00;92597.84;2088768;28;20116;-84
2024/01/19 03:36:23;;;;;;;13.65;4.38;;;;;;;-3.26;100.00;92599.78;2093990;28;20021;-81
2024/01/19 03:37:25;;;;;;;7.72;4.20;;;;;;;-3.10;100.00;92596.03;2063460;28;20071;-84
2024/01/19 03:38:26;;;;;;;9.68;4.65;;;;;;;-3.19;100.00;92603.31;2095095;28;20036;-84
2024/01/19 03:39:27;;;;;;;9.55;4.30;;;;;;;-2.86;100.00;92599.47;2085174;28;20421;-81
2024/01/19 03:40:27;;;;;;;10.93;4.60;;;;;;;-2.96;100.00;92600.03;2088008;28;20053;-85
2024/01/19 03:41:28;;;;;;;8.25;4.07;;;;;;;-2.98;100.00;92599.63;2110847;28;20236;-84
2024/01/19 03:42:29;;;;;;;9.10;4.47;;;;;;;-2.87;100.00;92601.34;2081233;28;20638;-85
2024/01/19 03:43:30;;;;;;;6.90;4.28;;;;;;;-2.96;100.00;92597.41;2104719;28;20032;-84
2024/01/19 03:44:31;;;;;;;8.98;4.70;;;;;;;-3.01;100.00;92602.91;2091941;28;20116;-82
2024/01/19 03:45:32;;;;;;;9.23;4.80;;;;;;;-3.24;100.00;92608.06;2084599;28;20059;-83
2024/01/19 03:46:33;;;;;;;10.63;4.82;;;;;;;-3.17;100.00;92606.31;2093988;28;20449;-81
2024/01/19 03:47:36;;;;;;;7.32;4.50;;;;;;;-3.15;100.00;92611.97;2106352;27;20519;-84
2024/01/19 03:48:37;;;;;;;9.50;4.90;;;;;;;-3.10;100.00;92606.47;2113852;28;20019;-84
2024/01/19 03:49:39;;;;;;;9.25;4.25;;;;;;;-3.03;100.00;92611.09;2083338;28;20020;-82
2024/01/19 03:50:40;;;;;;;9.70;3.90;;;;;;;-3.07;100.00;92605.81;2072940;28;20032;-85
2024/01/19 03:52:03;;;;;;;8.68;4.78;;;;;;;-3.22;100.00;92603.22;2102021;28;20420;-86
2024/01/19 03:53:04;;;;;;;9.55;5.05;;;;;;;-3.18;100.00;92606.69;2103227;27;20019;-83
2024/01/19 03:54:05;;;;;;;10.52;4.90;;;;;;;-3.22;100.00;92603.97;2113021;28;20026;-82
2024/01/19 03:55:07;;;;;;;9.23;5.15;;;;;;;-3.20;100.00;92603.66;2080929;28;20039;-85
2024/01/19 03:56:09;;;;;;;8.07;4.10;;;;;;;-3.14;100.00;92607.50;2073766;28;20047;-85
2024/01/19 03:57:10;;;;;;;8.80;4.40;;;;;;;-3.18;100.00;92607.44;2090070;28;20331;-81
2024/01/19 03:58:11;;;;;;;10.23;5.32;;;;;;;-3.15;100.00;92608.63;2082046;28;20024;-82
2024/01/19 03:59:12;;;;;;;8.00;5.40;;;;;;;-3.16;100.00;92607.88;2095699;28;20028;-85
2024/01/19 04:00:13;;;;;;;8.93;5.10;;;;;;;-3.00;100.00;92613.03;2105669;28;20126;-87
2024/01/19 04:01:15;;;;;;;10.02;4.80;;;;;;;-2.95;100.00;92604.91;2108953;27;20238;-82
2024/01/19 04:02:16;;;;;;;11.75;5.97;;;;;;;-2.99;100.00;92611.16;2111623;28;20138;-84
2024/01/19 04:03:19;;;;;;;11.93;5.60;;;;;;;-3.02;100.00;92607.41;2082001;28;20037;-83
2024/01/19 04:04:22;;;;;;;11.23;5.68;;;;;;;-2.90;100.00;92611.72;2073898;28;20586;-82
2024/01/19 04:05:24;;;;;;;9.02;5.75;;;;;;;-2.89;100.00;92611.41;2097620;28;20416;-82
2024/01/19 04:06:25;;;;;;;10.52;6.13;;;;;;;-2.85;100.00;92617.44;2083956;28;20028;-83
2024/01/19 04:07:26;;;;;;;9.48;5.82;;;;;;;-2.86;100.00;92612.56;2105559;28;20095;-83
2024/01/19 04:08:27;;;;;;;10.02;5.70;;;;;;;-2.72;100.00;92612.06;2084586;28;20024;-85
2024/01/19 04:09:28;;;;;;;9.10;5.72;;;;;;;-2.69;100.00;92621.84;2106362;28;20480;-85
2024/01/19 04:10:29;;;;;;;9.45;5.50;;;;;;;-2.80;100.00;92616.41;2100599;28;20023;-80
2024/01/19 04:11:32;;;;;;;11.75;6.53;;;;;;;-2.79;100.00;92620.53;2088916;28;20047;-82
2024/01/19 04:12:34;;;;;;;8.38;5.13;;;;;;;-2.79;100.00;92620.53;2096463;28;20020;-82
2024/01/19 04:13:35;;;;;;;8.50;6.13;;;;;;;-2.95;100.00;92625.81;2092047;28;20133;-84
2024/01/19 04:14:36;;;;;;;8.75;5.00;;;;;;;-2.85;100.00;92621.94;2120694;27;20433;-83
2024/01/19 04:15:37;;;;;;;10.23;5.68;;;;;;;-2.89;100.00;92619.25;2102991;27;20011;-85
2024/01/19 04:16:39;;;;;;;8.32;5.10;;;;;;;-2.84;100.00;92624.19;2092773;28;20114;-81
2024/01/19 04:17:40;;;;;;;8.27;5.18;;;;;;;-3.00;100.00;92627.97;2087114;28;20082;-86
2024/01/19 04:18:40;;;;;;;9.60;6.00;;;;;;;-2.80;100.00;92627.63;2083440;28;20205;-84
2024/01/19 04:19:41;;;;;;;9.70;5.22;;;;;;;-2.89;100.00;92626.31;2104265;28;20040;-85
2024/01/19 04:20:42;;;;;;;8.25;5.20;;;;;;;-2.85;100.00;92620.06;2095598;28;20111;-82
2024/01/19 04:21:43;;;;;;;7.75;5.30;;;;;;;-2.79;100.00;92625.78;2100230;28;20031;-83
2024/01/19 04:22:44;;;;;;;11.57;5.18;;;;;;;-2.74;100.00;92635.22;2105114;28;20050;-82
2024/01/19 04:23:45;;;;;;;8.13;5.53;;;;;;;-2.63;100.00;92629.09;2098553;28;20600;-85
2024/01/19 04:24:46;;;;;;;7.70;4.82;;;;;;;-2.69;100.00;92629.69;2105497;28;20023;-86
2024/01/19 04:25:47;;;;;;;9.48;4.65;;;;;;;-2.71;100.00;92634.53;2093267;28;20060;-85
2024/01/19 04:26:48;;;;;;;11.43;4.65;;;;;;;-2.64;100.00;92634.66;2099248;28;20042;-82
2024/01/19 04:27:48;;;;;;;8.43;4.97;;;;;;;-2.75;100.00;92631.09;2109240;27;20023;-83
2024/01/19 04:28:50;;;;;;;6.75;4.45;;;;;;;-2.69;100.00;92627.09;2081102;28;20530;-81
2024/01/19 04:29:50;;;;;;;8.13;5.32;;;;;;;-2.65;100.00;92633.91;2088348;28;20095;-83
2024/01/19 04:30:51;;;;;;;9.00;4.82;;;;;;;-2.66;100.00;92627.16;2087279;28;20125;-85
2024/01/19 04:31:53;;;;;;;8.20;4.95;;;;;;;-2.67;100.00;92630.13;2104245;28;20812;-84
2024/01/19 04:32:54;;;;;;;7.60;5.30;;;;;;;-2.81;100.00;92630.56;2092965;28;20106;-82
2024/01/19 04:33:55;;;;;;;7.57;5.18;;;;;;;-2.83;100.00;92630.19;2094291;28;20016;-83
2024/01/19 04:34:56;;;;;;;6.90;4.45;;;;;;;-2.71;100.00;92630.06;2113526;28;20556;-83
2024/01/19 04:35:57;;;;;;;7.47;4.78;;;;;;;-2.63;100.00;92636.19;2082312;28;20016;-82
2024/01/19 04:36:58;;;;;;;7.53;5.15;;;;;;;-2.63;100.00;92636.94;2113707;27;20118;-85
2024/01/19 04:37:59;;;;;;;7.15;5.00;;;;;;;-2.66;100.00;92639.47;2101047;28;20019;-82
2024/01/19 04:39:00;;;;;;;9.48;4.43;;;;;;;-2.55;100.00;92635.97;2104126;28;20035;-83
2024/01/19 04:40:01;;;;;;;8.13;4.70;;;;;;;-2.56;100.00;92642.28;2098666;28;20027;-84
2024/01/19 04:41:02;;;;;;;8.82;4.93;;;;;;;-2.49;100.00;92644.31;2090215;28;20738;-85
2024/01/19 04:42:04;;;;;;;8.32;4.22;;;;;;;-2.60;100.00;92638.09;2112502;28;20027;-84
2024/01/19 04:43:04;;;;;;;8.15;4.25;;;;;;;-2.42;100.00;92643.66;2092435;28;20089;-82
2024/01/19 04:44:06;;;;;;;6.28;4.13;;;;;;;-2.41;100.00;92650.44;2074125;28;20083;-82
2024/01/19 04:45:07;;;;;;;7.85;4.40;;;;;;;-2.38;100.00;92644.50;2092357;28;20030;-81
2024/01/19 04:46:08;;;;;;;7.82;4.13;;;;;;;-2.37;100.00;92657.25;2098391;28;20110;-86